createdAt,value
2018-12-26T00:00:49.076Z,-0.58
2018-12-26T00:03:16.494Z,-0.72
2018-12-26T00:06:03.081Z,-0.79
2018-12-26T00:14:33.638Z,-0.72
2018-12-26T00:17:20.388Z,-0.86
2018-12-26T00:19:48.045Z,-0.97
2018-12-26T00:22:15.548Z,-1.02
2018-12-26T00:24:42.763Z,-0.90
2018-12-26T00:27:10.009Z,-0.83
2018-12-26T00:29:37.515Z,-0.82
2018-12-26T00:32:04.729Z,-0.67
2018-12-26T00:34:31.953Z,-0.63
2018-12-26T00:36:59.571Z,-0.47
2018-12-26T00:42:27.605Z,-0.50
2018-12-26T00:45:14.657Z,-0.59
2018-12-26T00:47:41.903Z,-0.67
2018-12-26T00:50:09.068Z,-0.62
2018-12-26T00:52:36.156Z,-0.56
2018-12-26T00:55:35.211Z,-0.48
2018-12-26T00:58:02.395Z,-0.50
2018-12-26T01:00:29.619Z,-0.62
2018-12-26T01:03:16.264Z,-0.66
2018-12-26T01:11:51.353Z,-0.86
2018-12-26T01:14:18.512Z,-0.75
2018-12-26T01:16:45.676Z,-0.84
2018-12-26T01:19:12.864Z,-0.86
2018-12-26T01:21:40.151Z,-0.92
2018-12-26T01:24:39.049Z,-0.97
2018-12-26T01:27:06.649Z,-0.98
2018-12-26T01:29:33.835Z,-1.07
2018-12-26T01:32:01.034Z,-1.07
2018-12-26T01:34:28.135Z,-1.06
2018-12-26T01:36:55.284Z,-1.08
2018-12-26T01:42:23.273Z,-1.20
2018-12-26T01:44:50.670Z,-1.22
2018-12-26T01:49:57.373Z,-1.20
2018-12-26T01:52:24.527Z,-1.35
2018-12-26T01:54:51.728Z,-1.50
2018-12-26T01:57:18.925Z,-1.63
2018-12-26T02:02:58.796Z,-1.71
2018-12-26T02:05:37.958Z,-1.77
2018-12-26T02:08:05.270Z,-1.77
2018-12-26T02:10:32.341Z,-1.75
2018-12-26T02:13:11.725Z,-1.67
2018-12-26T02:18:39.544Z,-1.67
2018-12-26T02:21:06.751Z,-1.66
2018-12-26T02:23:33.985Z,-1.45
2018-12-26T02:26:01.201Z,-1.43
2018-12-26T02:28:28.359Z,-1.50
2018-12-26T02:36:48.758Z,-1.67
2018-12-26T02:39:15.965Z,-1.78
2018-12-26T02:41:43.161Z,-1.87
2018-12-26T02:44:29.919Z,-1.74
2018-12-26T02:46:57.078Z,-1.62
2018-12-26T02:49:24.613Z,-1.62
2018-12-26T02:51:51.846Z,-1.63
2018-12-26T02:54:38.484Z,-1.71
2018-12-26T02:57:06.166Z,-1.78
2018-12-26T02:59:33.342Z,-1.64
2018-12-26T03:02:00.524Z,-1.37
2018-12-26T03:04:47.444Z,-1.28
2018-12-26T03:07:34.358Z,-1.32
2018-12-26T03:10:01.569Z,-1.49
2018-12-26T03:12:30.575Z,-1.63
2018-12-26T03:14:57.726Z,-1.56
2018-12-26T03:17:25.025Z,-1.44
2018-12-26T03:19:52.177Z,-1.38
2018-12-26T03:22:38.855Z,-1.36
2018-12-26T03:25:46.886Z,-1.40
2018-12-26T03:28:14.104Z,-1.25
2018-12-26T03:30:41.262Z,-1.25
2018-12-26T03:33:19.909Z,-1.33
2018-12-26T03:35:46.999Z,-1.41
2018-12-26T03:38:14.321Z,-1.43
2018-12-26T03:41:22.361Z,-1.37
2018-12-26T03:56:07.771Z,-1.39
2018-12-26T03:59:05.950Z,-1.61
2018-12-26T04:01:33.153Z,-1.81
2018-12-26T04:04:00.326Z,-1.80
2018-12-26T04:06:27.524Z,-1.73
2018-12-26T04:09:14.309Z,-1.74
2018-12-26T04:11:41.493Z,-1.77
2018-12-26T04:14:49.534Z,-1.84
2018-12-26T04:17:16.698Z,-1.95
2018-12-26T04:20:24.757Z,-1.85
2018-12-26T04:26:12.353Z,-1.39
2018-12-26T04:28:39.531Z,-1.34
2018-12-26T04:31:06.685Z,-1.51
2018-12-26T04:33:33.935Z,-1.66
2018-12-26T04:36:20.465Z,-1.70
2018-12-26T04:38:47.696Z,-1.61
2018-12-26T04:44:16.418Z,-1.05
2018-12-26T04:46:44.005Z,-0.86
2018-12-26T04:49:11.198Z,-0.75
2018-12-26T04:51:57.845Z,-0.64
2018-12-26T04:58:07.488Z,-0.28
2018-12-26T05:00:34.689Z,-0.24
2018-12-26T05:03:01.799Z,-0.28
2018-12-26T05:05:28.909Z,-0.27
2018-12-26T05:07:55.966Z,-0.20
2018-12-26T05:10:23.150Z,-0.16
2018-12-26T05:13:02.028Z,-0.35
2018-12-26T05:15:29.194Z,-0.43
2018-12-26T05:17:56.368Z,-0.29
2018-12-26T05:20:23.547Z,-0.39
2018-12-26T05:22:50.715Z,-0.32
2018-12-26T05:25:17.889Z,-0.24
2018-12-26T05:27:45.202Z,-0.28
2018-12-26T05:30:12.361Z,-0.35
2018-12-26T05:32:39.638Z,-0.37
2018-12-26T05:35:06.827Z,-0.29
2018-12-26T05:37:34.023Z,-0.30
2018-12-26T05:40:01.185Z,-0.25
2018-12-26T05:42:28.419Z,-0.21
2018-12-26T05:48:03.679Z,-0.06
2018-12-26T05:50:50.207Z,-0.02
2018-12-26T05:53:36.882Z,-0.06
2018-12-26T05:56:04.046Z,-0.12
2018-12-26T06:01:11.330Z,-0.16
2018-12-26T06:03:58.025Z,-0.21
2018-12-26T06:06:25.228Z,-0.30
2018-12-26T06:08:52.408Z,-0.28
2018-12-26T06:11:19.956Z,-0.28
2018-12-26T06:13:47.168Z,-0.25
2018-12-26T06:16:14.214Z,-0.21
2018-12-26T06:18:41.391Z,-0.17
2018-12-26T06:21:08.456Z,-0.12
2018-12-26T06:23:35.630Z,-0.07
2018-12-26T06:26:02.806Z,-0.03
2018-12-26T06:28:30.210Z,0.04
2018-12-26T06:31:16.914Z,0.06
2018-12-26T06:33:44.187Z,0.08
2018-12-26T06:36:11.409Z,0.04
2018-12-26T06:38:39.029Z,0.14
2018-12-26T06:41:06.246Z,0.24
2018-12-26T06:43:52.955Z,0.03
2018-12-26T06:46:20.157Z,-0.07
2018-12-26T06:48:47.303Z,0.04
2018-12-26T06:51:15.234Z,0.08
2018-12-26T06:57:03.456Z,-0.01
2018-12-26T06:59:50.113Z,-0.13
2018-12-26T07:02:36.876Z,-0.23
2018-12-26T07:05:04.051Z,-0.26
2018-12-26T07:07:31.295Z,-0.06
2018-12-26T07:09:58.471Z,-0.09
2018-12-26T07:15:18.207Z,-0.07
2018-12-26T07:17:45.364Z,0.07
2018-12-26T07:23:31.031Z,-0.07
2018-12-26T07:25:58.470Z,0.09
2018-12-26T07:28:25.620Z,0.04
2018-12-26T07:30:52.832Z,0.07
2018-12-26T07:33:39.719Z,0.16
2018-12-26T07:36:06.933Z,-0.02
2018-12-26T07:42:06.605Z,0.03
2018-12-26T07:45:14.580Z,0.03
2018-12-26T07:48:01.517Z,0.11
2018-12-26T07:50:28.601Z,0.31
2018-12-26T07:53:15.306Z,0.29
2018-12-26T07:56:01.967Z,0.33
2018-12-26T07:58:48.638Z,0.25
2018-12-26T08:06:54.500Z,0.30
2018-12-26T08:09:41.178Z,0.35
2018-12-26T08:12:20.778Z,0.44
2018-12-26T08:17:27.571Z,0.48
2018-12-26T08:19:54.732Z,0.47
2018-12-26T08:22:21.936Z,0.49
2018-12-26T08:27:28.907Z,0.58
2018-12-26T08:29:56.152Z,0.58
2018-12-26T08:32:23.308Z,0.65
2018-12-26T08:34:50.536Z,0.68
2018-12-26T08:40:19.284Z,0.72
2018-12-26T08:42:46.457Z,0.75
2018-12-26T08:45:13.505Z,0.80
2018-12-26T08:48:00.310Z,0.81
2018-12-26T08:50:27.854Z,0.81
2018-12-26T08:52:55.012Z,0.86
2018-12-26T08:55:42.100Z,0.94
2018-12-26T09:01:23.715Z,0.92
2018-12-26T09:03:50.919Z,0.94
2018-12-26T09:06:18.085Z,0.96
2018-12-26T09:09:12.415Z,1.02
2018-12-26T09:11:39.667Z,1.07
2018-12-26T09:14:07.252Z,1.19
2018-12-26T09:17:15.273Z,1.31
2018-12-26T09:19:42.791Z,1.37
2018-12-26T09:22:09.945Z,1.43
2018-12-26T09:24:37.171Z,1.44
2018-12-26T09:27:47.108Z,1.52
2018-12-26T09:30:14.333Z,1.59
2018-12-26T09:32:41.496Z,1.52
2018-12-26T09:38:29.896Z,1.72
2018-12-26T09:40:57.097Z,1.64
2018-12-26T09:43:24.317Z,1.54
2018-12-26T09:48:32.106Z,1.48
2018-12-26T09:50:59.218Z,1.56
2018-12-26T09:53:26.847Z,1.72
2018-12-26T09:55:54.124Z,1.83
2018-12-26T09:58:21.339Z,1.95
2018-12-26T10:00:48.563Z,2.03
2018-12-26T10:03:15.750Z,2.02
2018-12-26T10:06:14.629Z,1.99
2018-12-26T10:08:41.794Z,2.00
2018-12-26T10:11:09.006Z,2.11
2018-12-26T10:14:17.056Z,2.25
2018-12-26T10:16:44.291Z,2.49
2018-12-26T10:19:11.473Z,2.71
2018-12-26T10:21:58.163Z,2.69
2018-12-26T10:27:37.910Z,2.58
2018-12-26T10:30:05.660Z,2.50
2018-12-26T10:32:32.838Z,2.49
2018-12-26T10:40:33.160Z,2.48
2018-12-26T10:43:00.425Z,2.47
2018-12-26T10:45:27.592Z,2.49
2018-12-26T10:47:54.795Z,2.46
2018-12-26T10:50:21.973Z,2.41
2018-12-26T10:53:08.902Z,2.37
2018-12-26T10:55:36.058Z,2.41
2018-12-26T10:58:03.269Z,2.49
2018-12-26T11:00:30.467Z,2.54
2018-12-26T11:02:57.943Z,2.52
2018-12-26T11:08:25.930Z,2.40
2018-12-26T11:10:53.187Z,2.43
2018-12-26T11:13:32.656Z,2.42
2018-12-26T11:15:59.824Z,2.47
2018-12-26T11:18:39.165Z,2.58
2018-12-26T11:21:06.239Z,2.54
2018-12-26T11:23:33.326Z,2.46
2018-12-26T11:26:00.544Z,2.47
2018-12-26T11:28:27.752Z,2.47
2018-12-26T11:33:56.631Z,2.45
2018-12-26T11:36:55.716Z,2.36
2018-12-26T11:39:22.801Z,2.32
2018-12-26T11:44:29.913Z,1.91
2018-12-26T11:46:57.122Z,2.00
2018-12-26T11:49:24.325Z,2.12
2018-12-26T11:51:51.523Z,2.20
2018-12-26T11:54:18.742Z,2.31
2018-12-26T11:56:45.919Z,2.40
2018-12-26T11:59:13.153Z,2.56
2018-12-26T12:01:40.636Z,2.78
2018-12-26T12:04:08.191Z,2.95
2018-12-26T12:06:35.454Z,3.05
2018-12-26T12:12:48.853Z,3.03
2018-12-26T12:15:16.361Z,3.12
2018-12-26T12:17:43.428Z,3.21
2018-12-26T12:20:11.525Z,3.34
2018-12-26T12:22:38.824Z,3.40
2018-12-26T12:25:06.043Z,3.55
2018-12-26T12:27:33.250Z,3.48
2018-12-26T12:30:00.490Z,3.25
2018-12-26T12:32:27.677Z,3.21
2018-12-26T12:34:54.879Z,3.15
2018-12-26T12:37:22.052Z,3.02
2018-12-26T12:39:49.261Z,2.95
2018-12-26T12:48:18.574Z,2.88
2018-12-26T12:51:05.795Z,2.72
2018-12-26T12:53:44.722Z,2.59
2018-12-26T12:56:12.316Z,2.46
2018-12-26T12:59:00.799Z,2.44
2018-12-26T13:04:05.848Z,2.45
2018-12-26T13:09:34.651Z,2.56
2018-12-26T13:12:01.848Z,2.67
2018-12-26T13:14:30.810Z,2.62
2018-12-26T13:16:58.080Z,2.68
2018-12-26T13:19:25.264Z,2.57
2018-12-26T13:21:52.468Z,2.58
2018-12-26T13:24:39.135Z,2.65
2018-12-26T13:27:06.396Z,2.55
2018-12-26T13:29:54.123Z,2.53
2018-12-26T13:35:53.129Z,2.38
2018-12-26T13:38:20.355Z,2.27
2018-12-26T13:43:49.010Z,2.30
2018-12-26T13:46:57.026Z,2.37
2018-12-26T13:55:19.935Z,2.39
2018-12-26T13:57:47.171Z,2.41
2018-12-26T14:00:14.339Z,2.36
2018-12-26T14:02:41.552Z,2.30
2018-12-26T14:05:08.817Z,2.28
2018-12-26T14:07:36.009Z,2.29
2018-12-26T14:10:44.195Z,2.30
2018-12-26T14:13:11.442Z,2.29
2018-12-26T14:15:38.605Z,2.34
2018-12-26T14:18:46.534Z,2.35
2018-12-26T14:24:47.157Z,2.41
2018-12-26T14:27:14.472Z,2.35
2018-12-26T14:29:42.566Z,2.30
2018-12-26T14:32:20.692Z,2.28
2018-12-26T14:34:47.881Z,2.28
2018-12-26T14:37:15.058Z,2.22
2018-12-26T14:40:02.064Z,2.23
2018-12-26T14:42:29.233Z,2.10
2018-12-26T14:44:56.472Z,1.91
2018-12-26T14:47:23.556Z,1.86
2018-12-26T14:49:50.725Z,1.74
2018-12-26T14:52:58.639Z,1.69
2018-12-26T14:55:25.865Z,1.67
2018-12-26T14:57:52.936Z,1.65
2018-12-26T15:03:52.824Z,1.70
2018-12-26T15:06:39.496Z,1.72
2018-12-26T15:09:47.899Z,1.75
2018-12-26T15:12:15.491Z,1.72
2018-12-26T15:14:42.663Z,1.72
2018-12-26T15:17:50.681Z,1.83
2018-12-26T15:20:17.866Z,1.76
2018-12-26T15:22:45.045Z,1.62
2018-12-26T15:28:13.149Z,1.53
2018-12-26T15:30:40.328Z,1.52
2018-12-26T15:33:07.941Z,1.49
2018-12-26T15:35:35.094Z,1.46
2018-12-26T15:38:02.290Z,1.45
2018-12-26T15:40:29.499Z,1.48
2018-12-26T15:45:49.489Z,1.49
2018-12-26T15:48:36.543Z,1.42
2018-12-26T15:51:03.674Z,1.43
2018-12-26T15:53:30.877Z,1.43
2018-12-26T15:58:59.456Z,1.43
2018-12-26T16:01:46.123Z,1.43
2018-12-26T16:04:13.327Z,1.43
2018-12-26T16:06:40.952Z,1.44
2018-12-26T16:09:08.126Z,1.48
2018-12-26T16:11:35.386Z,1.57
2018-12-26T16:17:42.350Z,1.49
2018-12-26T16:20:09.905Z,1.49
2018-12-26T16:22:37.080Z,1.48
2018-12-26T16:25:45.694Z,1.48
2018-12-26T16:28:13.299Z,1.51
2018-12-26T16:30:47.005Z,1.51
2018-12-26T16:33:14.192Z,1.52
2018-12-26T16:35:41.267Z,1.54
2018-12-26T16:38:08.491Z,1.57
2018-12-26T16:40:35.638Z,1.58
2018-12-26T16:43:02.847Z,1.56
2018-12-26T16:45:29.968Z,1.55
2018-12-26T16:47:57.033Z,1.56
2018-12-26T16:50:27.072Z,1.58
2018-12-26T16:53:03.035Z,1.54
2018-12-26T16:55:30.759Z,1.52
2018-12-26T16:58:10.248Z,1.49
2018-12-26T17:00:37.421Z,1.53
2018-12-26T17:03:04.530Z,1.63
2018-12-26T17:05:43.770Z,1.66
2018-12-26T17:08:23.168Z,1.69
2018-12-26T17:11:09.934Z,1.61
2018-12-26T17:13:38.573Z,1.58
2018-12-26T17:16:25.988Z,1.59
2018-12-26T17:18:53.194Z,1.61
2018-12-26T17:21:40.194Z,1.60
2018-12-26T17:27:19.718Z,1.59
2018-12-26T17:29:46.907Z,1.64
2018-12-26T17:32:33.582Z,1.64
2018-12-26T17:38:00.484Z,1.59
2018-12-26T17:40:27.709Z,1.58
2018-12-26T17:42:55.195Z,1.56
2018-12-26T17:46:03.806Z,1.62
2018-12-26T17:48:31.006Z,1.70
2018-12-26T17:51:40.517Z,1.69
2018-12-26T17:54:46.652Z,1.66
2018-12-26T17:57:35.480Z,1.62
2018-12-26T18:00:25.529Z,1.57
2018-12-26T18:05:54.218Z,1.46
2018-12-26T18:08:34.226Z,1.50
2018-12-26T18:11:01.310Z,1.51
2018-12-26T18:13:28.874Z,1.56
2018-12-26T18:18:55.438Z,1.58
2018-12-26T18:21:22.598Z,1.59
2018-12-26T18:23:50.044Z,1.57
2018-12-26T18:26:17.184Z,1.57
2018-12-26T18:28:44.397Z,1.59
2018-12-26T18:31:52.407Z,1.63
2018-12-26T18:34:19.800Z,1.63
2018-12-26T18:37:27.740Z,1.65
2018-12-26T18:39:54.964Z,1.64
2018-12-26T18:42:22.196Z,1.61
2018-12-26T18:50:31.319Z,1.59
2018-12-26T18:56:18.578Z,1.63
2018-12-26T18:58:45.723Z,1.64
2018-12-26T19:01:12.865Z,1.62
2018-12-26T19:03:59.523Z,1.75
2018-12-26T19:06:26.696Z,1.68
2018-12-26T19:09:06.231Z,1.65
2018-12-26T19:11:33.426Z,1.65
2018-12-26T19:14:00.939Z,1.64
2018-12-26T19:19:49.056Z,1.66
2018-12-26T19:22:16.248Z,1.68
2018-12-26T19:25:24.285Z,1.66
2018-12-26T19:31:25.851Z,1.67
2018-12-26T19:34:12.498Z,1.68
2018-12-26T19:36:59.198Z,1.70
2018-12-26T19:39:26.656Z,1.71
2018-12-26T19:41:53.752Z,1.92
2018-12-26T19:44:20.853Z,1.77
2018-12-26T19:46:48.075Z,1.70
2018-12-26T19:49:15.268Z,1.67
2018-12-26T19:51:42.820Z,1.66
2018-12-26T19:54:10.057Z,1.61
2018-12-26T19:56:37.250Z,1.65
2018-12-26T19:59:23.963Z,1.61
2018-12-26T20:01:51.447Z,1.66
2018-12-26T20:04:19.011Z,1.86
2018-12-26T20:07:27.239Z,1.65
2018-12-26T20:09:54.477Z,1.58
2018-12-26T20:15:02.398Z,1.52
2018-12-26T20:17:29.563Z,1.54
2018-12-26T20:19:56.800Z,1.51
2018-12-26T20:22:24.057Z,1.55
2018-12-26T20:24:51.246Z,1.61
2018-12-26T20:27:37.897Z,1.59
2018-12-26T20:33:39.606Z,1.72
2018-12-26T20:36:06.810Z,1.68
2018-12-26T20:38:33.984Z,1.68
2018-12-26T20:41:01.554Z,1.70
2018-12-26T20:43:48.200Z,1.69
2018-12-26T20:46:34.957Z,1.72
2018-12-26T20:49:02.125Z,1.73
2018-12-26T20:51:31.928Z,1.75
2018-12-26T20:53:59.139Z,1.82
2018-12-26T20:56:46.100Z,1.79
2018-12-26T20:59:32.941Z,1.77
2018-12-26T21:02:05.671Z,1.79
2018-12-26T21:04:39.028Z,1.67
2018-12-26T21:07:06.620Z,1.64
2018-12-26T21:09:33.812Z,1.63
2018-12-26T21:12:01.461Z,1.65
2018-12-26T21:14:28.630Z,1.65
2018-12-26T21:17:07.638Z,1.61
2018-12-26T21:19:54.269Z,1.58
2018-12-26T21:22:21.502Z,1.64
2018-12-26T21:24:48.684Z,1.61
2018-12-26T21:27:22.494Z,1.65
2018-12-26T21:29:49.758Z,1.78
2018-12-26T21:32:36.819Z,1.70
2018-12-26T21:35:44.931Z,1.70
2018-12-26T21:38:12.164Z,1.66
2018-12-26T21:40:39.344Z,1.57
2018-12-26T21:43:07.003Z,1.61
2018-12-26T21:45:34.450Z,1.58
2018-12-26T21:48:01.927Z,1.59
2018-12-26T21:50:48.497Z,1.63
2018-12-26T21:56:28.670Z,1.62
2018-12-26T21:59:15.351Z,1.67
2018-12-26T22:01:42.602Z,1.69
2018-12-26T22:07:29.976Z,1.76
2018-12-26T22:12:58.593Z,1.67
2018-12-26T22:15:25.827Z,1.69
2018-12-26T22:17:52.916Z,1.71
2018-12-26T22:20:20.138Z,1.72
2018-12-26T22:22:47.337Z,1.75
2018-12-26T22:25:14.573Z,1.82
2018-12-26T22:28:13.645Z,1.82
2018-12-26T22:30:40.821Z,1.72
2018-12-26T22:33:08.387Z,1.71
2018-12-26T22:35:35.490Z,1.72
2018-12-26T22:38:02.707Z,1.72
2018-12-26T22:40:29.923Z,1.73
2018-12-26T22:45:50.158Z,1.72
2018-12-26T22:48:17.383Z,1.64
2018-12-26T22:54:36.580Z,1.53
2018-12-26T22:57:04.157Z,1.57
2018-12-26T23:00:12.174Z,1.53
2018-12-26T23:02:39.338Z,1.46
2018-12-26T23:05:26.341Z,1.52
2018-12-26T23:11:06.725Z,1.52
2018-12-26T23:13:33.889Z,1.42
2018-12-26T23:16:01.064Z,1.44
2018-12-26T23:18:28.163Z,1.45
2018-12-26T23:20:55.233Z,1.40
2018-12-26T23:24:03.307Z,1.39
2018-12-26T23:26:30.577Z,1.40
2018-12-26T23:32:11.864Z,1.46
2018-12-26T23:34:39.082Z,1.47
2018-12-26T23:37:06.284Z,1.44
2018-12-26T23:39:52.853Z,1.43
2018-12-26T23:42:20.319Z,1.36
2018-12-26T23:45:28.294Z,1.41
2018-12-26T23:47:55.473Z,1.36
2018-12-26T23:50:22.684Z,1.31
2018-12-26T23:52:49.872Z,1.31
2018-12-26T23:55:16.956Z,1.31
2018-12-26T23:57:44.126Z,1.42
